Time;durP1;ratioP1;P1;durP2;ratioP2;P2;SDS_P1;SDS_P2;PMS_P1;PMS_P2;Temp;Humidity;BMP_temperature;BMP_pressure;BME280_temperature;BME280_humidity;BME280_pressure;Samples;Min_cycle;Max_cycle;Signal;HPM_P1;HPM_P2
2022/03/17 00:00:54;;;;;;;25.40;16.57;;;;;;;;;;4983444;28;20426;-55
2022/03/17 00:03:20;;;;;;;27.20;17.50;;;;;;;;;;4985238;28;21063;-55
2022/03/17 00:05:47;;;;;;;28.37;18.07;;;;;;;;;;4966595;28;20465;-56
2022/03/17 00:08:13;;;;;;;30.97;15.60;;;;;;;;;;4981306;28;20799;-56
2022/03/17 00:10:39;;;;;;;25.80;16.90;;;;;;;;;;4984932;28;20437;-56
2022/03/17 00:13:05;;;;;;;26.47;16.73;;;;;;;;;;4981655;28;20469;-56
2022/03/17 00:15:31;;;;;;;28.00;16.57;;;;;;;;;;4981389;28;20424;-56
2022/03/17 00:17:57;;;;;;;24.80;16.33;;;;;;;;;;4983848;28;20415;-55
2022/03/17 00:20:23;;;;;;;28.30;17.10;;;;;;;;;;4984819;28;20451;-54
2022/03/17 00:22:50;;;;;;;28.90;17.00;;;;;;;;;;4966017;28;20426;-56
2022/03/17 00:25:17;;;;;;;26.00;16.47;;;;;;;;;;4981517;28;20447;-55
2022/03/17 00:27:44;;;;;;;27.53;17.50;;;;;;;;;;4982003;28;20415;-56
2022/03/17 00:30:10;;;;;;;26.70;16.50;;;;;;;;;;4984688;28;20488;-56
2022/03/17 00:32:38;;;;;;;26.53;15.90;;;;;;;;;;4984421;28;20959;-56
2022/03/17 00:37:51;;;;;;;26.87;16.10;;;;;;;;;;4987837;28;20469;-56
2022/03/17 00:40:17;;;;;;;24.53;17.07;;;;;;;;;;4984566;28;20418;-56
2022/03/17 00:42:44;;;;;;;31.37;18.50;;;;;;;;;;4983854;28;20429;-56
2022/03/17 00:45:10;;;;;;;31.63;17.80;;;;;;;;;;4981302;28;20419;-56
2022/03/17 00:47:37;;;;;;;33.37;19.57;;;;;;;;;;4981031;28;20423;-56
2022/03/17 00:50:05;;;;;;;26.83;17.60;;;;;;;;;;4981025;28;20419;-56
2022/03/17 00:52:31;;;;;;;28.00;15.33;;;;;;;;;;4945567;28;1031505;-55
2022/03/17 00:54:57;;;;;;;31.50;17.37;;;;;;;;;;4984351;28;20199;-55
2022/03/17 00:57:23;;;;;;;28.00;16.53;;;;;;;;;;4992377;28;20916;-55
2022/03/17 00:59:49;;;;;;;25.37;16.90;;;;;;;;;;4983859;28;20598;-55
2022/03/17 01:02:16;;;;;;;26.93;17.90;;;;;;;;;;4981876;28;20530;-55
2022/03/17 01:04:42;;;;;;;28.60;16.80;;;;;;;;;;4964837;28;20466;-55
2022/03/17 01:07:08;;;;;;;25.47;16.83;;;;;;;;;;4984367;28;20434;-55
2022/03/17 01:09:34;;;;;;;28.97;15.83;;;;;;;;;;4981665;28;20842;-55
2022/03/17 01:12:01;;;;;;;26.73;16.97;;;;;;;;;;4984555;28;21034;-55
2022/03/17 01:14:27;;;;;;;28.90;17.43;;;;;;;;;;4985072;28;20422;-56
2022/03/17 01:16:53;;;;;;;25.87;16.53;;;;;;;;;;4982945;28;20426;-56
2022/03/17 01:19:19;;;;;;;26.07;15.80;;;;;;;;;;4981841;28;20529;-56
2022/03/17 01:21:49;;;;;;;25.83;16.50;;;;;;;;;;4982498;28;20910;-56
2022/03/17 01:24:16;;;;;;;24.50;15.30;;;;;;;;;;4985010;28;20438;-56
2022/03/17 01:26:42;;;;;;;29.00;16.60;;;;;;;;;;4984392;28;20426;-55
2022/03/17 01:29:08;;;;;;;28.40;17.27;;;;;;;;;;4981564;28;20427;-55
2022/03/17 01:31:34;;;;;;;19.57;14.57;;;;;;;;;;4981078;28;20274;-56
2022/03/17 01:34:00;;;;;;;25.40;16.20;;;;;;;;;;4984215;28;20422;-55
2022/03/17 01:36:26;;;;;;;21.83;16.23;;;;;;;;;;4984654;28;20438;-56
2022/03/17 01:38:53;;;;;;;29.00;17.53;;;;;;;;;;4982753;28;20451;-56
2022/03/17 01:41:19;;;;;;;24.10;17.30;;;;;;;;;;4981453;28;20494;-56
2022/03/17 01:43:45;;;;;;;27.47;17.20;;;;;;;;;;4982056;28;20434;-56
2022/03/17 01:46:14;;;;;;;26.00;14.80;;;;;;;;;;4984348;28;20848;-55
2022/03/17 01:48:40;;;;;;;23.93;15.83;;;;;;;;;;4984308;28;20982;-55
2022/03/17 01:51:06;;;;;;;22.90;15.50;;;;;;;;;;4980986;28;20434;-55
2022/03/17 01:53:32;;;;;;;28.00;16.30;;;;;;;;;;4980658;28;20502;-55
2022/03/17 01:55:58;;;;;;;33.77;17.00;;;;;;;;;;4983432;28;20792;-55
2022/03/17 01:58:25;;;;;;;28.97;16.43;;;;;;;;;;4986177;28;20929;-56
2022/03/17 02:00:51;;;;;;;27.60;16.20;;;;;;;;;;4964819;28;20426;-56
2022/03/17 02:03:17;;;;;;;27.20;16.70;;;;;;;;;;4984127;28;20517;-54
2022/03/17 02:05:43;;;;;;;27.83;16.30;;;;;;;;;;4983331;28;20460;-56
2022/03/17 02:08:10;;;;;;;24.13;15.73;;;;;;;;;;4979857;28;20756;-56
2022/03/17 02:13:21;;;;;;;30.60;16.93;;;;;;;;;;4986646;28;20478;-56
2022/03/17 02:15:54;;;;;;;30.97;17.57;;;;;;;;;;4981493;28;20451;-56
2022/03/17 02:18:21;;;;;;;29.50;17.67;;;;;;;;;;4983829;28;20983;-56
2022/03/17 02:20:47;;;;;;;29.13;16.20;;;;;;;;;;4982727;28;20913;-55
2022/03/17 02:25:59;;;;;;;23.53;15.80;;;;;;;;;;4983194;28;20458;-56
2022/03/17 02:28:26;;;;;;;28.57;18.53;;;;;;;;;;4983596;28;20517;-55
2022/03/17 02:30:52;;;;;;;27.83;17.50;;;;;;;;;;4981759;28;20426;-56
2022/03/17 02:33:18;;;;;;;31.60;16.50;;;;;;;;;;4980305;28;20506;-56
2022/03/17 02:35:45;;;;;;;23.63;16.33;;;;;;;;;;4980788;28;20419;-56
2022/03/17 02:38:14;;;;;;;25.80;16.47;;;;;;;;;;4971030;28;20840;-56
2022/03/17 02:40:41;;;;;;;24.47;16.50;;;;;;;;;;4966054;28;20431;-56
2022/03/17 02:43:07;;;;;;;24.70;16.63;;;;;;;;;;4979991;28;20913;-56
2022/03/17 02:45:34;;;;;;;27.07;17.87;;;;;;;;;;4979744;28;20430;-56
2022/03/17 02:48:00;;;;;;;32.20;17.30;;;;;;;;;;4982954;28;20461;-55
2022/03/17 02:50:26;;;;;;;28.37;17.40;;;;;;;;;;4983413;28;20430;-55
2022/03/17 02:52:52;;;;;;;24.07;16.83;;;;;;;;;;4981286;28;20521;-55
2022/03/17 02:55:18;;;;;;;27.47;17.43;;;;;;;;;;4980023;28;20893;-55
2022/03/17 02:57:45;;;;;;;33.53;17.90;;;;;;;;;;4987796;28;20430;-56
2022/03/17 03:00:11;;;;;;;28.40;17.97;;;;;;;;;;4978444;28;20606;-55
2022/03/17 03:02:38;;;;;;;26.40;17.40;;;;;;;;;;4980009;28;20509;-55
2022/03/17 03:05:04;;;;;;;29.60;17.57;;;;;;;;;;4983191;28;20426;-55
2022/03/17 03:07:30;;;;;;;26.47;18.57;;;;;;;;;;4984130;28;20507;-55
2022/03/17 03:09:56;;;;;;;27.43;17.13;;;;;;;;;;4982026;28;20527;-55
2022/03/17 03:12:22;;;;;;;28.73;18.10;;;;;;;;;;4983002;28;20826;-55
2022/03/17 03:14:49;;;;;;;25.20;17.80;;;;;;;;;;4981669;28;20443;-56
2022/03/17 03:17:16;;;;;;;28.03;17.60;;;;;;;;;;4979623;28;20494;-55
2022/03/17 03:19:42;;;;;;;26.07;18.03;;;;;;;;;;4980211;28;20427;-55
2022/03/17 03:22:08;;;;;;;26.50;17.20;;;;;;;;;;4985173;28;20426;-55
2022/03/17 03:24:36;;;;;;;26.20;17.50;;;;;;;;;;4986942;28;20792;-56
2022/03/17 03:27:02;;;;;;;22.43;17.30;;;;;;;;;;4983927;28;20426;-55
2022/03/17 03:29:28;;;;;;;26.27;16.90;;;;;;;;;;4983736;28;20427;-55
2022/03/17 03:32:03;;;;;;;30.63;18.43;;;;;;;;;;4985321;28;20949;-56
2022/03/17 03:34:30;;;;;;;27.40;18.37;;;;;;;;;;4986891;28;20421;-55
2022/03/17 03:39:41;;;;;;;29.30;19.17;;;;;;;;;;4983478;28;20406;-55
2022/03/17 03:42:07;;;;;;;30.03;18.70;;;;;;;;;;4986604;28;20485;-55
2022/03/17 03:44:34;;;;;;;30.50;20.47;;;;;;;;;;4986458;28;20422;-55
2022/03/17 03:47:00;;;;;;;31.60;21.43;;;;;;;;;;4983904;28;20983;-56
2022/03/17 03:49:26;;;;;;;25.27;18.43;;;;;;;;;;4983086;28;20866;-56
2022/03/17 03:51:52;;;;;;;29.50;19.40;;;;;;;;;;4984818;28;20462;-55
2022/03/17 03:54:18;;;;;;;27.77;18.00;;;;;;;;;;4986203;28;20520;-55
2022/03/17 03:56:45;;;;;;;31.00;18.60;;;;;;;;;;4986310;28;20521;-55
2022/03/17 04:01:43;;;;;;;35.70;20.60;;;;;;;;;;4985655;28;20517;-55
2022/03/17 04:04:13;;;;;;;31.67;19.30;;;;;;;;;;4982950;28;20462;-55
2022/03/17 04:06:45;;;;;;;31.67;20.47;;;;;;;;;;4982810;28;20533;-55
2022/03/17 04:09:12;;;;;;;31.03;20.50;;;;;;;;;;4984854;28;20423;-56
2022/03/17 04:11:39;;;;;;;39.00;21.07;;;;;;;;;;4982819;28;20549;-56
2022/03/17 04:14:05;;;;;;;35.27;21.30;;;;;;;;;;4986008;28;20427;-56
2022/03/17 04:16:31;;;;;;;30.17;20.10;;;;;;;;;;4986150;28;20457;-56
2022/03/17 04:18:57;;;;;;;29.83;20.90;;;;;;;;;;4983467;28;20448;-56
2022/03/17 04:21:24;;;;;;;37.60;21.40;;;;;;;;;;4982485;28;20506;-56
2022/03/17 04:23:50;;;;;;;29.10;21.67;;;;;;;;;;4984127;28;20484;-56
2022/03/17 04:26:16;;;;;;;27.33;20.73;;;;;;;;;;4985977;28;20422;-56
2022/03/17 04:28:42;;;;;;;34.10;21.20;;;;;;;;;;4985371;28;20426;-56
2022/03/17 04:31:08;;;;;;;30.17;20.10;;;;;;;;;;4982387;28;20423;-56
2022/03/17 04:33:34;;;;;;;32.37;21.10;;;;;;;;;;4982137;28;20790;-56
2022/03/17 04:36:02;;;;;;;29.77;19.73;;;;;;;;;;4985250;28;20431;-56
2022/03/17 04:38:28;;;;;;;36.67;22.00;;;;;;;;;;4985662;28;20453;-56
2022/03/17 04:40:54;;;;;;;32.83;21.60;;;;;;;;;;4983547;28;20971;-56
2022/03/17 04:43:20;;;;;;;35.03;22.93;;;;;;;;;;4982269;28;20430;-56
2022/03/17 04:45:47;;;;;;;31.57;23.13;;;;;;;;;;4965335;28;20439;-56
2022/03/17 04:48:14;;;;;;;34.00;21.57;;;;;;;;;;4985331;28;20422;-54
2022/03/17 04:50:41;;;;;;;30.60;20.87;;;;;;;;;;4985553;28;20426;-56
2022/03/17 04:55:52;;;;;;;28.93;20.20;;;;;;;;;;4983705;28;20991;-56
2022/03/17 04:58:19;;;;;;;29.00;20.43;;;;;;;;;;4988100;28;20422;-57
2022/03/17 05:00:45;;;;;;;30.23;21.67;;;;;;;;;;4982701;28;20423;-56
2022/03/17 05:03:11;;;;;;;35.00;21.83;;;;;;;;;;4985250;28;20425;-56
2022/03/17 05:05:38;;;;;;;35.93;22.67;;;;;;;;;;4985112;28;20888;-55
2022/03/17 05:08:05;;;;;;;37.80;22.00;;;;;;;;;;4980294;28;20500;-56
2022/03/17 05:10:31;;;;;;;34.83;22.37;;;;;;;;;;4985131;28;20885;-56
2022/03/17 05:12:57;;;;;;;31.20;21.30;;;;;;;;;;4982695;28;20559;-56
2022/03/17 05:15:24;;;;;;;37.73;22.40;;;;;;;;;;4981803;28;20890;-55
2022/03/17 05:17:51;;;;;;;34.37;21.13;;;;;;;;;;4982073;28;20892;-56
2022/03/17 05:20:17;;;;;;;38.70;22.00;;;;;;;;;;4985909;28;20955;-56
2022/03/17 05:22:43;;;;;;;33.40;21.03;;;;;;;;;;4985540;28;20441;-57
2022/03/17 05:25:10;;;;;;;34.07;21.90;;;;;;;;;;4982572;28;20439;-56
2022/03/17 05:27:37;;;;;;;34.47;20.13;;;;;;;;;;4982634;28;20427;-58
2022/03/17 05:30:04;;;;;;;33.50;22.07;;;;;;;;;;4985464;28;20484;-57
2022/03/17 05:32:30;;;;;;;37.30;23.17;;;;;;;;;;4985904;28;20470;-58
2022/03/17 05:34:56;;;;;;;33.90;22.90;;;;;;;;;;4983248;28;20429;-58
2022/03/17 05:37:22;;;;;;;30.57;22.03;;;;;;;;;;4983455;28;20522;-58
2022/03/17 05:39:48;;;;;;;34.53;23.97;;;;;;;;;;4986066;28;20473;-59
2022/03/17 05:42:14;;;;;;;33.50;21.03;;;;;;;;;;4988855;28;20426;-58
2022/03/17 05:44:40;;;;;;;33.40;23.10;;;;;;;;;;4986719;28;20426;-59
2022/03/17 05:47:06;;;;;;;33.80;21.87;;;;;;;;;;4984336;28;20427;-58
2022/03/17 05:49:32;;;;;;;32.80;21.97;;;;;;;;;;4964495;28;20442;-58
2022/03/17 05:51:59;;;;;;;34.30;24.03;;;;;;;;;;4984615;28;20942;-59
2022/03/17 05:54:25;;;;;;;38.30;22.70;;;;;;;;;;4985362;28;20466;-59
2022/03/17 05:56:52;;;;;;;34.83;22.97;;;;;;;;;;4985321;28;20441;-59
2022/03/17 05:59:18;;;;;;;38.90;23.47;;;;;;;;;;4985044;28;20422;-59
2022/03/17 06:01:44;;;;;;;32.80;22.87;;;;;;;;;;4984621;28;20437;-59
2022/03/17 06:04:10;;;;;;;30.63;21.40;;;;;;;;;;4981437;28;20431;-58
2022/03/17 06:06:36;;;;;;;37.70;24.90;;;;;;;;;;4981104;28;20455;-58
2022/03/17 06:09:02;;;;;;;30.10;22.07;;;;;;;;;;4984759;28;20219;-57
2022/03/17 06:11:31;;;;;;;35.73;24.00;;;;;;;;;;4979425;28;20230;-58
2022/03/17 06:13:59;;;;;;;36.90;23.67;;;;;;;;;;4982910;28;20426;-58
2022/03/17 06:16:25;;;;;;;35.37;22.20;;;;;;;;;;4983953;28;20457;-58
2022/03/17 06:18:51;;;;;;;35.07;23.30;;;;;;;;;;4982396;28;20453;-57
2022/03/17 06:21:17;;;;;;;38.33;25.17;;;;;;;;;;4980512;28;20455;-56
2022/03/17 06:23:43;;;;;;;32.70;21.50;;;;;;;;;;4979635;28;20550;-58
2022/03/17 06:26:09;;;;;;;31.60;23.07;;;;;;;;;;4983755;28;20868;-57
2022/03/17 06:28:35;;;;;;;36.53;21.97;;;;;;;;;;4983649;28;20437;-57
2022/03/17 06:31:01;;;;;;;37.33;22.70;;;;;;;;;;4980620;28;20502;-57
2022/03/17 06:33:31;;;;;;;31.90;22.07;;;;;;;;;;4980356;28;20562;-57
2022/03/17 06:35:57;;;;;;;31.30;20.80;;;;;;;;;;4982560;28;20194;-57
2022/03/17 06:38:23;;;;;;;33.67;24.50;;;;;;;;;;4983650;28;20549;-57
2022/03/17 06:40:49;;;;;;;43.00;24.30;;;;;;;;;;4982294;28;20984;-57
2022/03/17 06:43:15;;;;;;;35.37;22.87;;;;;;;;;;4962882;28;20947;-57
2022/03/17 06:45:41;;;;;;;34.37;24.47;;;;;;;;;;4980199;28;20427;-57
2022/03/17 06:48:07;;;;;;;34.77;23.90;;;;;;;;;;4983480;28;20945;-57
2022/03/17 06:50:33;;;;;;;37.40;23.57;;;;;;;;;;4983502;28;20422;-58
2022/03/17 06:52:59;;;;;;;35.17;24.30;;;;;;;;;;4980546;28;20548;-57
2022/03/17 06:55:25;;;;;;;35.83;24.77;;;;;;;;;;4979744;28;21174;-57
2022/03/17 06:57:52;;;;;;;37.30;25.80;;;;;;;;;;4987942;28;20457;-57
2022/03/17 07:00:19;;;;;;;33.63;22.83;;;;;;;;;;4979822;28;20941;-58
2022/03/17 07:02:45;;;;;;;36.70;25.27;;;;;;;;;;4980626;28;20922;-57
2022/03/17 07:05:11;;;;;;;37.10;25.27;;;;;;;;;;4983268;28;20449;-57
2022/03/17 07:07:37;;;;;;;45.40;27.57;;;;;;;;;;4978484;28;20539;-58
2022/03/17 07:10:06;;;;;;;38.73;25.90;;;;;;;;;;4982778;28;20982;-58
2022/03/17 07:12:32;;;;;;;37.13;25.33;;;;;;;;;;4981974;28;20469;-58
2022/03/17 07:14:58;;;;;;;38.73;25.17;;;;;;;;;;4963096;28;20504;-57
2022/03/17 07:17:24;;;;;;;39.73;25.37;;;;;;;;;;4979817;28;20218;-58
2022/03/17 07:22:26;;;;;;;39.17;26.47;;;;;;;;;;4983198;28;20526;-58
2022/03/17 07:24:53;;;;;;;35.53;25.93;;;;;;;;;;4981275;28;20858;-57
2022/03/17 07:27:21;;;;;;;36.87;24.77;;;;;;;;;;4979753;28;21134;-57
2022/03/17 07:29:47;;;;;;;43.70;28.40;;;;;;;;;;4980617;28;20419;-58
2022/03/17 07:32:13;;;;;;;43.37;25.47;;;;;;;;;;4965368;28;20486;-58
2022/03/17 07:34:39;;;;;;;40.53;27.27;;;;;;;;;;4982981;28;20974;-58
2022/03/17 07:37:05;;;;;;;40.50;26.03;;;;;;;;;;4987462;28;20423;-57
2022/03/17 07:39:31;;;;;;;35.10;25.47;;;;;;;;;;4979550;28;20187;-57
2022/03/17 07:41:57;;;;;;;42.57;27.57;;;;;;;;;;4981781;28;20839;-58
2022/03/17 07:44:23;;;;;;;39.20;26.50;;;;;;;;;;4982789;28;20426;-57
2022/03/17 07:46:49;;;;;;;44.60;28.20;;;;;;;;;;4981479;28;20422;-56
2022/03/17 07:49:15;;;;;;;41.37;26.73;;;;;;;;;;4979430;28;20434;-56
2022/03/17 07:51:42;;;;;;;43.73;28.37;;;;;;;;;;4979394;28;20462;-56
2022/03/17 07:54:08;;;;;;;42.63;27.87;;;;;;;;;;4982578;28;21002;-56
2022/03/17 07:56:35;;;;;;;44.90;28.07;;;;;;;;;;4982635;28;20517;-56
2022/03/17 07:59:01;;;;;;;44.23;27.03;;;;;;;;;;4972618;28;20861;-56
2022/03/17 08:01:27;;;;;;;40.83;27.07;;;;;;;;;;4982591;28;20426;-56
2022/03/17 08:03:54;;;;;;;39.43;26.17;;;;;;;;;;4980797;28;20517;-56
2022/03/17 08:06:20;;;;;;;40.90;28.60;;;;;;;;;;4979266;28;20674;-56
2022/03/17 08:08:46;;;;;;;44.03;28.47;;;;;;;;;;4981540;28;20449;-56
2022/03/17 08:11:12;;;;;;;47.37;29.67;;;;;;;;;;4985934;28;20417;-56
2022/03/17 08:13:39;;;;;;;45.17;29.07;;;;;;;;;;4986032;28;20457;-56
2022/03/17 08:16:06;;;;;;;43.80;30.00;;;;;;;;;;4990831;28;20498;-56
2022/03/17 08:18:34;;;;;;;49.53;31.43;;;;;;;;;;4985728;28;20502;-56
2022/03/17 08:21:00;;;;;;;42.93;30.40;;;;;;;;;;4986552;28;20429;-56
2022/03/17 08:23:26;;;;;;;48.63;30.93;;;;;;;;;;4985990;28;20433;-56
2022/03/17 08:25:52;;;;;;;49.27;32.00;;;;;;;;;;4984281;28;20529;-56
2022/03/17 08:28:18;;;;;;;42.73;29.10;;;;;;;;;;4982359;28;20650;-56
2022/03/17 08:30:48;;;;;;;49.07;31.83;;;;;;;;;;4983068;28;20477;-56
2022/03/17 08:33:15;;;;;;;45.07;30.87;;;;;;;;;;4968297;28;20466;-56
2022/03/17 08:35:42;;;;;;;50.87;31.87;;;;;;;;;;4985451;28;20750;-56
2022/03/17 08:38:08;;;;;;;57.20;32.57;;;;;;;;;;4981132;28;20930;-56
2022/03/17 08:40:35;;;;;;;50.33;33.03;;;;;;;;;;4985742;28;20418;-56
2022/03/17 08:43:02;;;;;;;46.77;29.87;;;;;;;;;;4982712;28;20781;-56
2022/03/17 08:50:57;;;;;;;50.40;31.40;;;;;;;;;;4983256;28;20418;-56
2022/03/17 08:53:23;;;;;;;52.40;32.57;;;;;;;;;;4981729;28;20516;-56
2022/03/17 08:55:49;;;;;;;48.97;31.13;;;;;;;;;;4983306;28;20419;-56
2022/03/17 08:58:16;;;;;;;48.60;32.73;;;;;;;;;;4988516;28;20196;-56
2022/03/17 09:00:44;;;;;;;47.47;31.17;;;;;;;;;;4982169;28;20429;-56
2022/03/17 09:03:10;;;;;;;58.80;32.93;;;;;;;;;;4985344;28;20430;-56
2022/03/17 09:05:36;;;;;;;54.23;34.30;;;;;;;;;;4985320;28;20433;-56
2022/03/17 09:08:06;;;;;;;55.37;34.37;;;;;;;;;;4979995;28;20422;-56
2022/03/17 09:10:32;;;;;;;53.83;34.90;;;;;;;;;;4985058;28;20462;-56
2022/03/17 09:13:05;;;;;;;51.03;31.60;;;;;;;;;;4984727;28;20806;-56
2022/03/17 09:15:31;;;;;;;62.03;33.80;;;;;;;;;;4985020;28;20423;-56
2022/03/17 09:17:58;;;;;;;54.80;33.73;;;;;;;;;;4982414;28;20974;-56
2022/03/17 09:20:24;;;;;;;56.20;33.60;;;;;;;;;;4980504;28;20419;-56
2022/03/17 09:22:50;;;;;;;56.27;36.53;;;;;;;;;;4982966;28;20818;-56
2022/03/17 09:25:23;;;;;;;55.57;35.33;;;;;;;;;;4984742;28;20499;-56
2022/03/17 09:27:50;;;;;;;53.93;33.17;;;;;;;;;;4983379;28;20430;-56
2022/03/17 09:30:17;;;;;;;59.53;36.07;;;;;;;;;;4981355;28;20419;-56
2022/03/17 09:32:45;;;;;;;56.17;36.83;;;;;;;;;;4981592;28;20953;-56
2022/03/17 09:35:11;;;;;;;60.67;35.60;;;;;;;;;;4984557;28;20639;-56
2022/03/17 09:37:37;;;;;;;54.33;34.67;;;;;;;;;;4979854;28;20566;-56
2022/03/17 09:40:04;;;;;;;65.40;36.90;;;;;;;;;;4984271;28;20509;-56
2022/03/17 09:42:30;;;;;;;47.77;29.10;;;;;;;;;;4984567;28;20418;-56
2022/03/17 09:44:56;;;;;;;43.17;27.80;;;;;;;;;;4982061;28;20812;-56
2022/03/17 09:47:24;;;;;;;43.33;26.10;;;;;;;;;;4980946;28;20454;-56
2022/03/17 09:49:54;;;;;;;40.57;26.37;;;;;;;;;;4982358;28;20431;-56
2022/03/17 09:52:21;;;;;;;32.03;20.57;;;;;;;;;;4966597;28;20512;-56
2022/03/17 09:54:51;;;;;;;28.97;19.60;;;;;;;;;;4983197;28;20924;-56
2022/03/17 09:57:17;;;;;;;24.80;15.80;;;;;;;;;;4985709;28;20473;-56
2022/03/17 09:59:53;;;;;;;28.20;16.50;;;;;;;;;;4983561;28;20501;-56
2022/03/17 10:02:20;;;;;;;20.63;15.60;;;;;;;;;;4980943;28;20992;-56
2022/03/17 10:04:47;;;;;;;19.43;15.80;;;;;;;;;;4981497;28;20423;-56
2022/03/17 10:07:14;;;;;;;21.27;15.83;;;;;;;;;;4982263;28;20794;-56
2022/03/17 10:09:40;;;;;;;21.07;16.20;;;;;;;;;;4980660;28;20419;-56
2022/03/17 10:12:10;;;;;;;21.20;17.07;;;;;;;;;;4983785;28;20469;-56
2022/03/17 10:14:40;;;;;;;20.73;16.27;;;;;;;;;;4983859;28;20928;-56
2022/03/17 10:17:09;;;;;;;22.57;17.47;;;;;;;;;;4984186;28;20951;-56
2022/03/17 10:19:36;;;;;;;23.80;17.60;;;;;;;;;;4983723;28;20466;-56
2022/03/17 10:22:08;;;;;;;21.83;16.17;;;;;;;;;;4980854;28;20423;-56
2022/03/17 10:24:36;;;;;;;25.10;18.67;;;;;;;;;;4980388;28;20437;-56
2022/03/17 10:27:03;;;;;;;23.57;18.23;;;;;;;;;;4983439;28;20422;-56
2022/03/17 10:29:30;;;;;;;29.40;16.50;;;;;;;;;;4983572;28;20438;-56
2022/03/17 10:31:56;;;;;;;26.10;17.37;;;;;;;;;;4980869;28;21034;-56
2022/03/17 10:34:28;;;;;;;25.80;18.63;;;;;;;;;;4962719;28;20508;-56
2022/03/17 10:37:23;;;;;;;20.93;16.33;;;;;;;;;;4982052;28;20450;-56
2022/03/17 10:39:51;;;;;;;23.63;15.60;;;;;;;;;;4971804;28;20634;-56
2022/03/17 10:42:18;;;;;;;30.60;18.00;;;;;;;;;;4980195;28;20512;-56
2022/03/17 10:44:52;;;;;;;21.30;16.40;;;;;;;;;;4980549;28;20415;-56
2022/03/17 10:47:33;;;;;;;22.60;18.30;;;;;;;;;;4983361;28;20426;-57
2022/03/17 10:50:00;;;;;;;28.03;18.43;;;;;;;;;;4980821;28;20425;-57
2022/03/17 10:52:26;;;;;;;24.93;16.53;;;;;;;;;;4979659;28;20466;-57
2022/03/17 10:54:58;;;;;;;25.50;14.60;;;;;;;;;;4981529;28;20984;-57
2022/03/17 10:57:25;;;;;;;25.00;13.67;;;;;;;;;;4990410;28;20433;-60
2022/03/17 10:59:55;;;;;;;18.17;13.67;;;;;;;;;;4983400;28;20426;-59
2022/03/17 11:02:25;;;;;;;17.20;12.57;;;;;;;;;;4983260;28;20457;-60
2022/03/17 11:05:00;;;;;;;13.87;11.90;;;;;;;;;;4982030;28;20430;-59
2022/03/17 11:07:37;;;;;;;13.93;11.00;;;;;;;;;;4981992;28;20473;-59
2022/03/17 11:10:05;;;;;;;15.07;10.80;;;;;;;;;;4982847;28;20510;-60
2022/03/17 11:12:34;;;;;;;15.40;11.10;;;;;;;;;;4983019;28;20501;-59
2022/03/17 11:15:03;;;;;;;14.67;11.30;;;;;;;;;;4983271;28;20423;-59
2022/03/17 11:17:36;;;;;;;22.23;10.90;;;;;;;;;;4983228;28;20437;-59
2022/03/17 11:20:04;;;;;;;15.50;9.50;;;;;;;;;;4981358;28;20426;-58
2022/03/17 11:22:32;;;;;;;12.67;8.97;;;;;;;;;;4979972;28;20435;-58
2022/03/17 11:25:17;;;;;;;12.93;9.37;;;;;;;;;;4980610;28;20423;-61
2022/03/17 11:27:45;;;;;;;10.30;8.97;;;;;;;;;;4983184;28;20420;-62
2022/03/17 11:30:17;;;;;;;12.37;7.67;;;;;;;;;;4982704;28;20434;-57
2022/03/17 11:32:54;;;;;;;9.00;8.17;;;;;;;;;;4987978;28;20956;-59
2022/03/17 11:35:21;;;;;;;12.37;7.17;;;;;;;;;;4983576;28;20761;-60
2022/03/17 11:37:47;;;;;;;7.10;6.40;;;;;;;;;;4976942;28;20459;-59
2022/03/17 11:40:14;;;;;;;6.97;6.37;;;;;;;;;;4988577;28;20422;-60
2022/03/17 11:42:42;;;;;;;5.90;5.20;;;;;;;;;;4984093;28;20849;-59
2022/03/17 11:45:17;;;;;;;5.60;5.17;;;;;;;;;;4984209;28;20418;-60
2022/03/17 11:47:44;;;;;;;8.33;5.43;;;;;;;;;;4990270;28;20413;-59
2022/03/17 11:50:27;;;;;;;5.37;4.37;;;;;;;;;;4986632;28;20427;-59
2022/03/17 11:53:00;;;;;;;8.00;4.67;;;;;;;;;;4986030;28;20534;-64
2022/03/17 11:55:44;;;;;;;9.90;4.87;;;;;;;;;;4983113;28;20422;-59
2022/03/17 11:58:16;;;;;;;10.23;5.10;;;;;;;;;;4986563;28;20430;-59
2022/03/17 12:00:46;;;;;;;7.00;5.57;;;;;;;;;;4987689;28;20419;-61
2022/03/17 12:03:13;;;;;;;19.37;6.90;;;;;;;;;;4985934;28;20470;-58
2022/03/17 12:05:40;;;;;;;11.67;6.10;;;;;;;;;;4988827;28;20514;-58
2022/03/17 12:08:06;;;;;;;10.57;5.60;;;;;;;;;;4968585;28;20496;-58
2022/03/17 12:10:50;;;;;;;6.17;5.30;;;;;;;;;;4986297;28;20422;-58
2022/03/17 12:13:21;;;;;;;10.70;5.20;;;;;;;;;;4973161;28;20470;-57
2022/03/17 12:15:55;;;;;;;8.63;4.87;;;;;;;;;;4972957;28;20426;-62
2022/03/17 12:18:21;;;;;;;8.37;5.17;;;;;;;;;;4986727;28;20425;-58
2022/03/17 12:20:50;;;;;;;8.60;4.80;;;;;;;;;;4986423;28;20419;-58
2022/03/17 12:23:35;;;;;;;9.10;4.73;;;;;;;;;;4990701;28;20442;-59
2022/03/17 12:26:17;;;;;;;10.03;5.00;;;;;;;;;;4969399;28;20600;-57
2022/03/17 12:28:47;;;;;;;6.10;4.50;;;;;;;;;;4969408;28;20475;-61
2022/03/17 12:31:15;;;;;;;10.83;3.60;;;;;;;;;;4973159;28;20432;-59
2022/03/17 12:33:47;;;;;;;10.47;3.67;;;;;;;;;;4964739;28;20459;-58
2022/03/17 12:36:26;;;;;;;7.67;4.07;;;;;;;;;;4968768;28;20457;-60
2022/03/17 12:38:53;;;;;;;10.13;3.23;;;;;;;;;;4986081;28;20931;-59
2022/03/17 12:41:19;;;;;;;3.27;3.00;;;;;;;;;;4984291;28;20779;-63
2022/03/17 12:43:46;;;;;;;9.53;3.07;;;;;;;;;;4965178;28;20444;-58
2022/03/17 12:46:13;;;;;;;3.00;2.80;;;;;;;;;;4961824;28;20462;-60
2022/03/17 12:48:39;;;;;;;9.50;3.50;;;;;;;;;;4962475;28;20430;-59
2022/03/17 12:51:08;;;;;;;7.20;3.60;;;;;;;;;;4964165;28;20689;-60
2022/03/17 12:53:35;;;;;;;12.83;4.10;;;;;;;;;;4965225;28;20907;-57
2022/03/17 12:56:02;;;;;;;9.30;4.37;;;;;;;;;;4966099;28;20426;-60
2022/03/17 12:58:28;;;;;;;4.03;3.63;;;;;;;;;;4968258;28;20426;-59
2022/03/17 13:00:54;;;;;;;4.03;2.90;;;;;;;;;;4968075;28;20805;-60
2022/03/17 13:03:25;;;;;;;8.20;3.10;;;;;;;;;;4968012;28;20521;-58
2022/03/17 13:08:38;;;;;;;9.00;3.00;;;;;;;;;;4984686;28;20974;-59
2022/03/17 13:16:45;;;;;;;7.43;2.20;;;;;;;;;;4983849;28;20788;-58
2022/03/17 13:19:11;;;;;;;7.60;2.47;;;;;;;;;;4964330;28;20673;-59
2022/03/17 13:21:38;;;;;;;2.07;1.97;;;;;;;;;;4964230;28;20435;-58
2022/03/17 13:24:20;;;;;;;8.47;2.40;;;;;;;;;;4967266;28;20430;-60
2022/03/17 13:26:58;;;;;;;5.17;2.00;;;;;;;;;;4983981;28;20418;-58
2022/03/17 13:29:24;;;;;;;1.73;1.63;;;;;;;;;;4981469;28;20426;-57
2022/03/17 13:31:50;;;;;;;1.73;1.63;;;;;;;;;;4983116;28;20481;-58
2022/03/17 13:34:46;;;;;;;11.50;2.37;;;;;;;;;;4984907;28;20430;-60
2022/03/17 13:37:18;;;;;;;3.40;1.57;;;;;;;;;;4955649;28;20203;-58
2022/03/17 13:39:44;;;;;;;3.27;1.37;;;;;;;;;;4981701;28;20420;-58
2022/03/17 13:42:14;;;;;;;1.80;1.20;;;;;;;;;;4984633;28;20427;-57
2022/03/17 13:44:43;;;;;;;4.47;1.70;;;;;;;;;;4967082;28;20508;-57
2022/03/17 13:47:18;;;;;;;2.07;1.60;;;;;;;;;;4985198;28;20770;-56
2022/03/17 13:50:04;;;;;;;5.53;1.70;;;;;;;;;;4984149;28;20430;-57
2022/03/17 13:52:30;;;;;;;3.33;1.47;;;;;;;;;;4970546;28;20477;-58
2022/03/17 13:54:57;;;;;;;5.10;1.63;;;;;;;;;;4981982;28;20435;-58
2022/03/17 13:57:23;;;;;;;4.23;1.60;;;;;;;;;;4974232;28;20443;-58
2022/03/17 13:59:50;;;;;;;4.40;2.47;;;;;;;;;;4983149;28;20429;-59
2022/03/17 14:02:17;;;;;;;6.17;2.60;;;;;;;;;;4963227;28;20522;-59
2022/03/17 14:04:54;;;;;;;7.30;1.97;;;;;;;;;;4963151;28;20439;-58
2022/03/17 14:07:20;;;;;;;8.80;2.17;;;;;;;;;;4964138;28;20464;-58
2022/03/17 14:09:47;;;;;;;8.37;2.10;;;;;;;;;;4971442;28;20442;-59
2022/03/17 14:12:13;;;;;;;2.87;1.50;;;;;;;;;;4980723;28;20458;-60
2022/03/17 14:14:40;;;;;;;5.07;1.93;;;;;;;;;;4963266;28;20490;-60
2022/03/17 14:17:09;;;;;;;2.97;1.63;;;;;;;;;;4966454;28;20430;-59
2022/03/17 14:19:35;;;;;;;9.00;2.47;;;;;;;;;;4983947;28;20505;-61
2022/03/17 14:24:46;;;;;;;7.63;2.10;;;;;;;;;;4981665;28;20422;-59
2022/03/17 14:27:13;;;;;;;3.77;2.20;;;;;;;;;;4983610;28;20936;-56
2022/03/17 14:29:39;;;;;;;6.87;2.53;;;;;;;;;;4983559;28;20457;-58
2022/03/17 14:32:06;;;;;;;9.10;2.40;;;;;;;;;;4980313;28;20553;-58
2022/03/17 14:34:34;;;;;;;6.20;2.17;;;;;;;;;;4980468;28;20427;-58
2022/03/17 14:37:01;;;;;;;6.70;2.00;;;;;;;;;;4982981;28;20787;-60
2022/03/17 14:39:29;;;;;;;8.53;2.40;;;;;;;;;;4980459;28;20850;-58
2022/03/17 14:41:55;;;;;;;7.70;3.17;;;;;;;;;;4981861;28;20470;-57
2022/03/17 14:44:21;;;;;;;18.20;3.57;;;;;;;;;;4983489;28;20935;-57
2022/03/17 14:46:48;;;;;;;5.97;2.47;;;;;;;;;;4981423;28;20422;-58
2022/03/17 14:49:14;;;;;;;7.83;2.90;;;;;;;;;;4980076;28;20482;-58
2022/03/17 14:51:41;;;;;;;11.13;2.37;;;;;;;;;;4979939;28;20426;-56
2022/03/17 14:54:08;;;;;;;6.93;2.13;;;;;;;;;;4983277;28;20474;-57
2022/03/17 14:56:34;;;;;;;11.80;2.57;;;;;;;;;;4983131;28;20472;-56
2022/03/17 14:59:01;;;;;;;2.53;2.27;;;;;;;;;;4983330;28;20417;-59
2022/03/17 15:01:28;;;;;;;4.67;2.57;;;;;;;;;;4983351;28;20414;-57